createdAt,value
2017-04-29T00:00:57.379Z,0
2017-04-29T00:01:57.431Z,0
2017-04-29T00:02:57.485Z,0
2017-04-29T00:03:57.535Z,0
2017-04-29T00:04:57.587Z,0
2017-04-29T00:05:57.634Z,0
2017-04-29T00:06:57.689Z,0
2017-04-29T00:07:57.740Z,0
2017-04-29T00:08:57.786Z,0
2017-04-29T00:09:57.844Z,0
2017-04-29T00:10:57.890Z,0
2017-04-29T00:11:57.942Z,0
2017-04-29T00:12:57.998Z,0
2017-04-29T00:13:58.044Z,0
2017-04-29T00:14:58.098Z,0
2017-04-29T00:15:57.865Z,0
2017-04-29T00:16:58.197Z,0
2017-04-29T00:17:58.251Z,0
2017-04-29T00:18:58.309Z,0
2017-04-29T00:19:58.353Z,0
2017-04-29T00:20:58.401Z,0
2017-04-29T00:21:58.454Z,0
2017-04-29T00:22:58.501Z,0
2017-04-29T00:23:58.266Z,0
2017-04-29T00:24:58.310Z,0
2017-04-29T00:25:58.661Z,0
2017-04-29T00:26:58.707Z,0
2017-04-29T00:27:58.770Z,0
2017-04-29T00:28:58.817Z,0
2017-04-29T00:29:58.860Z,0
2017-04-29T00:30:58.916Z,0
2017-04-29T00:31:58.972Z,0
2017-04-29T00:32:59.017Z,0
2017-04-29T00:33:59.071Z,0
2017-04-29T00:34:59.118Z,0
2017-04-29T00:35:59.171Z,0
2017-04-29T00:36:59.224Z,0
2017-04-29T00:37:59.280Z,0
2017-04-29T00:38:59.329Z,0
2017-04-29T00:39:59.376Z,0
2017-04-29T00:40:59.428Z,0
2017-04-29T00:41:59.475Z,0
2017-04-29T00:42:59.532Z,0
2017-04-29T00:43:59.581Z,0
2017-04-29T00:44:59.639Z,0
2017-04-29T00:45:59.683Z,0
2017-04-29T00:46:59.737Z,0
2017-04-29T00:47:59.783Z,0
2017-04-29T00:48:59.837Z,0
2017-04-29T00:49:59.899Z,0
2017-04-29T00:50:59.947Z,0
2017-04-29T00:51:59.689Z,0
2017-04-29T00:53:00.039Z,0
2017-04-29T00:53:59.794Z,0
2017-04-29T00:55:00.145Z,0
2017-04-29T00:56:00.197Z,0
2017-04-29T00:57:00.245Z,0
2017-04-29T00:58:00.300Z,0
2017-04-29T00:59:00.353Z,0
2017-04-29T01:00:00.401Z,0
2017-04-29T01:01:00.450Z,0
2017-04-29T01:02:00.516Z,0
2017-04-29T01:03:00.557Z,0
2017-04-29T01:04:00.610Z,0
2017-04-29T01:05:00.354Z,0
2017-04-29T01:06:00.404Z,0
2017-04-29T01:07:00.458Z,0
2017-04-29T01:08:00.809Z,0
2017-04-29T01:09:00.860Z,0
2017-04-29T01:10:00.911Z,0
2017-04-29T01:11:00.961Z,0
2017-04-29T01:12:01.013Z,0
2017-04-29T01:13:01.064Z,0
2017-04-29T01:14:01.117Z,0
2017-04-29T01:15:01.166Z,0
2017-04-29T01:16:01.220Z,0
2017-04-29T01:17:01.268Z,0
2017-04-29T01:18:01.324Z,0
2017-04-29T01:19:01.068Z,0
2017-04-29T01:20:01.426Z,0
2017-04-29T01:21:01.474Z,0
2017-04-29T01:22:01.523Z,0
2017-04-29T01:23:01.576Z,0
2017-04-29T01:24:01.328Z,0
2017-04-29T01:25:01.679Z,0
2017-04-29T01:26:01.734Z,0
2017-04-29T01:27:01.776Z,0
2017-04-29T01:28:01.838Z,0
2017-04-29T01:29:01.930Z,0
2017-04-29T01:30:01.933Z,0
2017-04-29T01:31:01.987Z,0
2017-04-29T01:32:02.032Z,0
2017-04-29T01:33:02.088Z,0
2017-04-29T01:34:02.142Z,0
2017-04-29T01:35:02.191Z,0
2017-04-29T01:36:02.244Z,0
2017-04-29T01:37:02.293Z,0
2017-04-29T01:38:02.343Z,0
2017-04-29T01:39:02.397Z,0
2017-04-29T01:40:02.450Z,0
2017-04-29T01:41:02.499Z,0
2017-04-29T01:42:02.548Z,0
2017-04-29T01:43:02.601Z,0
2017-04-29T01:44:02.653Z,0
2017-04-29T01:45:02.704Z,0
2017-04-29T01:46:02.751Z,0
2017-04-29T01:47:02.803Z,0
2017-04-29T01:48:02.859Z,0
2017-04-29T01:49:02.605Z,0
2017-04-29T01:50:02.960Z,0
2017-04-29T01:51:03.016Z,0
2017-04-29T01:52:03.059Z,0
2017-04-29T01:53:03.113Z,0
2017-04-29T01:54:03.161Z,0
2017-04-29T01:55:03.222Z,0
2017-04-29T01:56:03.261Z,0
2017-04-29T01:57:03.335Z,0
2017-04-29T01:58:03.366Z,0
2017-04-29T01:59:03.423Z,0
2017-04-29T02:00:03.467Z,0
2017-04-29T02:01:03.219Z,0
2017-04-29T02:02:03.574Z,0
2017-04-29T02:03:03.621Z,0
2017-04-29T02:04:03.675Z,0
2017-04-29T02:05:03.757Z,0
2017-04-29T02:06:03.473Z,0
2017-04-29T02:07:03.830Z,0
2017-04-29T02:08:03.882Z,0
2017-04-29T02:09:03.933Z,0
2017-04-29T02:10:03.981Z,0
2017-04-29T02:11:04.028Z,0
2017-04-29T02:12:04.082Z,0
2017-04-29T02:13:04.134Z,0
2017-04-29T02:14:04.187Z,0
2017-04-29T02:15:04.231Z,0
2017-04-29T02:16:04.294Z,0
2017-04-29T02:17:04.338Z,0
2017-04-29T02:18:04.388Z,0
2017-04-29T02:19:04.438Z,0
2017-04-29T02:20:04.491Z,0
2017-04-29T02:21:04.540Z,0
2017-04-29T02:22:04.592Z,0
2017-04-29T02:23:04.641Z,0
2017-04-29T02:24:04.695Z,0
2017-04-29T02:25:04.746Z,0
2017-04-29T02:26:04.794Z,0
2017-04-29T02:27:04.850Z,0
2017-04-29T02:28:04.898Z,0
2017-04-29T02:29:04.949Z,0
2017-04-29T02:30:05.001Z,0
2017-04-29T02:31:05.089Z,0
2017-04-29T02:32:05.107Z,0
2017-04-29T02:33:05.159Z,0
2017-04-29T02:34:05.207Z,0
2017-04-29T02:35:04.960Z,0
2017-04-29T02:36:05.008Z,0
2017-04-29T02:37:05.362Z,0
2017-04-29T02:38:05.419Z,0
2017-04-29T02:39:05.459Z,0
2017-04-29T02:40:05.513Z,0
2017-04-29T02:41:05.567Z,0
2017-04-29T02:42:05.310Z,0
2017-04-29T02:43:05.666Z,0
2017-04-29T02:44:05.750Z,0
2017-04-29T02:45:05.465Z,0
2017-04-29T02:46:05.818Z,0
2017-04-29T02:47:05.867Z,0
2017-04-29T02:48:05.919Z,0
2017-04-29T02:49:05.973Z,0
2017-04-29T02:50:05.719Z,0
2017-04-29T02:51:05.774Z,0
2017-04-29T02:52:05.525Z,0
2017-04-29T02:53:06.177Z,0
2017-04-29T02:54:06.227Z,0
2017-04-29T02:55:06.281Z,0
2017-04-29T02:56:06.029Z,0
2017-04-29T02:57:06.077Z,0
2017-04-29T02:58:06.439Z,0
2017-04-29T02:59:06.487Z,0
2017-04-29T03:00:06.532Z,0
2017-04-29T03:01:06.588Z,0
2017-04-29T03:02:06.636Z,0
2017-04-29T03:03:06.701Z,0
2017-04-29T03:04:06.748Z,0
2017-04-29T03:05:06.789Z,0
2017-04-29T03:06:06.845Z,0
2017-04-29T03:07:06.891Z,0
2017-04-29T03:08:06.943Z,0
2017-04-29T03:09:06.997Z,0
2017-04-29T03:10:07.044Z,0
2017-04-29T03:11:07.098Z,0
2017-04-29T03:12:07.150Z,0
2017-04-29T03:13:07.202Z,0
2017-04-29T03:14:07.254Z,0
2017-04-29T03:15:07.300Z,0
2017-04-29T03:16:07.354Z,0
2017-04-29T03:17:07.403Z,0
2017-04-29T03:18:07.457Z,0
2017-04-29T03:19:07.502Z,0
2017-04-29T03:20:07.554Z,0
2017-04-29T03:21:07.605Z,0
2017-04-29T03:22:07.663Z,0
2017-04-29T03:23:07.711Z,0
2017-04-29T03:24:07.754Z,0
2017-04-29T03:25:07.810Z,0
2017-04-29T03:26:07.860Z,0
2017-04-29T03:27:07.914Z,0
2017-04-29T03:28:07.960Z,0
2017-04-29T03:29:08.013Z,0
2017-04-29T03:30:07.761Z,0
2017-04-29T03:31:08.112Z,0
2017-04-29T03:32:07.864Z,0
2017-04-29T03:33:08.214Z,0
2017-04-29T03:34:08.269Z,0
2017-04-29T03:35:08.331Z,0
2017-04-29T03:36:07.764Z,0
2017-04-29T03:37:08.423Z,0
2017-04-29T03:38:08.471Z,0
2017-04-29T03:39:08.519Z,0
2017-04-29T03:40:08.274Z,4
2017-04-29T03:41:08.626Z,4
2017-04-29T03:42:08.373Z,0
2017-04-29T03:43:08.735Z,4
2017-04-29T03:44:08.503Z,4
2017-04-29T03:45:08.826Z,4
2017-04-29T03:46:08.886Z,4
2017-04-29T03:47:08.927Z,8
2017-04-29T03:48:08.982Z,8
2017-04-29T03:49:09.039Z,8
2017-04-29T03:50:08.782Z,12
2017-04-29T03:51:09.135Z,12
2017-04-29T03:52:09.185Z,12
2017-04-29T03:53:09.237Z,16
2017-04-29T03:54:09.289Z,20
2017-04-29T03:55:09.340Z,20
2017-04-29T03:56:09.389Z,24
2017-04-29T03:57:09.438Z,28
2017-04-29T03:58:09.191Z,32
2017-04-29T03:59:09.546Z,36
2017-04-29T04:00:09.592Z,40
2017-04-29T04:01:09.649Z,48
2017-04-29T04:02:09.696Z,52
2017-04-29T04:03:09.747Z,56
2017-04-29T04:04:09.797Z,64
2017-04-29T04:05:09.850Z,72
2017-04-29T04:06:09.597Z,76
2017-04-29T04:07:09.953Z,80
2017-04-29T04:08:10.009Z,92
2017-04-29T04:09:10.055Z,96
2017-04-29T04:10:09.499Z,108
2017-04-29T04:11:09.854Z,116
2017-04-29T04:12:10.214Z,124
2017-04-29T04:13:09.955Z,136
2017-04-29T04:14:10.005Z,144
2017-04-29T04:15:10.358Z,152
2017-04-29T04:16:10.420Z,164
2017-04-29T04:17:10.462Z,172
2017-04-29T04:18:10.218Z,180
2017-04-29T04:19:10.568Z,192
2017-04-29T04:20:10.611Z,204
2017-04-29T04:21:10.702Z,216
2017-04-29T04:22:10.411Z,224
2017-04-29T04:23:10.765Z,232
2017-04-29T04:24:10.515Z,248
2017-04-29T04:25:10.867Z,256
2017-04-29T04:26:10.315Z,268
2017-04-29T04:27:10.996Z,276
2017-04-29T04:28:11.018Z,288
2017-04-29T04:29:11.084Z,300
2017-04-29T04:30:11.125Z,308
2017-04-29T04:31:11.172Z,320
2017-04-29T04:32:11.221Z,332
2017-04-29T04:33:11.273Z,340
2017-04-29T04:34:11.331Z,352
2017-04-29T04:35:11.378Z,364
2017-04-29T04:36:11.426Z,372
2017-04-29T04:37:11.475Z,384
2017-04-29T04:38:11.229Z,396
2017-04-29T04:39:11.584Z,404
2017-04-29T04:40:11.328Z,416
2017-04-29T04:41:11.679Z,436
2017-04-29T04:42:11.742Z,468
2017-04-29T04:43:11.784Z,496
2017-04-29T04:44:11.832Z,516
2017-04-29T04:45:11.887Z,532
2017-04-29T04:46:11.935Z,540
2017-04-29T04:47:11.990Z,556
2017-04-29T04:48:12.033Z,568
2017-04-29T04:49:12.090Z,580
2017-04-29T04:50:12.137Z,596
2017-04-29T04:51:12.190Z,604
2017-04-29T04:52:12.238Z,620
2017-04-29T04:53:12.290Z,632
2017-04-29T04:54:12.345Z,644
2017-04-29T04:55:12.398Z,652
2017-04-29T04:56:12.455Z,668
2017-04-29T04:57:12.495Z,680
2017-04-29T04:58:12.552Z,696
2017-04-29T04:59:12.609Z,708
2017-04-29T05:00:12.646Z,720
2017-04-29T05:01:12.701Z,732
2017-04-29T05:02:12.445Z,748
2017-04-29T05:03:12.807Z,760
2017-04-29T05:04:12.248Z,772
2017-04-29T05:05:12.901Z,788
2017-04-29T05:06:12.649Z,796
2017-04-29T05:07:13.004Z,808
2017-04-29T05:08:12.757Z,824
2017-04-29T05:09:13.110Z,836
2017-04-29T05:10:13.161Z,852
2017-04-29T05:11:13.213Z,864
2017-04-29T05:12:13.262Z,880
2017-04-29T05:13:13.315Z,892
2017-04-29T05:14:13.368Z,904
2017-04-29T05:15:12.812Z,920
2017-04-29T05:16:13.465Z,936
2017-04-29T05:17:13.515Z,948
2017-04-29T05:18:13.267Z,964
2017-04-29T05:19:13.623Z,976
2017-04-29T05:20:13.670Z,988
2017-04-29T05:21:13.725Z,1004
2017-04-29T05:22:13.774Z,1020
2017-04-29T05:23:13.826Z,1032
2017-04-29T05:24:13.574Z,1044
2017-04-29T05:25:13.627Z,1052
2017-04-29T05:26:13.976Z,1064
2017-04-29T05:27:13.722Z,1072
2017-04-29T05:28:13.773Z,1088
2017-04-29T05:29:14.132Z,1100
2017-04-29T05:30:13.886Z,1112
2017-04-29T05:31:14.234Z,1124
2017-04-29T05:32:14.284Z,1136
2017-04-29T05:33:14.336Z,1144
2017-04-29T05:34:14.384Z,1148
2017-04-29T05:35:14.440Z,1156
2017-04-29T05:36:14.492Z,1168
2017-04-29T05:37:14.539Z,1192
2017-04-29T05:38:14.596Z,1212
2017-04-29T05:39:14.640Z,1232
2017-04-29T05:40:14.695Z,1248
2017-04-29T05:41:14.444Z,1260
2017-04-29T05:42:14.798Z,1276
2017-04-29T05:43:14.853Z,1288
2017-04-29T05:44:14.900Z,1300
2017-04-29T05:45:14.945Z,1308
2017-04-29T05:46:15.015Z,1320
2017-04-29T05:47:15.052Z,1336
2017-04-29T05:48:15.105Z,1348
2017-04-29T05:49:15.162Z,1364
2017-04-29T05:50:15.207Z,1344
2017-04-29T05:51:15.257Z,1384
2017-04-29T05:52:15.312Z,1368
2017-04-29T05:53:15.057Z,1312
2017-04-29T05:54:15.415Z,1392
2017-04-29T05:55:15.460Z,1416
2017-04-29T05:56:15.511Z,1392
2017-04-29T05:57:15.564Z,1432
2017-04-29T05:58:15.623Z,1460
2017-04-29T05:59:15.669Z,1416
2017-04-29T06:00:15.726Z,1488
2017-04-29T06:01:15.769Z,1512
2017-04-29T06:02:15.824Z,1512
2017-04-29T06:03:15.879Z,1516
2017-04-29T06:04:15.964Z,1556
2017-04-29T06:05:15.977Z,1572
2017-04-29T06:06:16.043Z,1588
2017-04-29T06:07:16.080Z,1600
2017-04-29T06:08:16.139Z,1604
2017-04-29T06:09:16.187Z,1624
2017-04-29T06:10:16.233Z,1636
2017-04-29T06:11:16.283Z,1648
2017-04-29T06:12:16.338Z,1660
2017-04-29T06:13:16.090Z,1680
2017-04-29T06:14:16.443Z,1704
2017-04-29T06:15:16.498Z,1720
2017-04-29T06:16:16.542Z,1732
2017-04-29T06:17:16.593Z,1744
2017-04-29T06:18:16.661Z,1756
2017-04-29T06:19:16.703Z,1768
2017-04-29T06:20:16.483Z,1784
2017-04-29T06:21:16.803Z,1796
2017-04-29T06:22:16.853Z,1816
2017-04-29T06:23:16.909Z,1832
2017-04-29T06:24:16.958Z,1848
2017-04-29T06:25:17.008Z,1864
2017-04-29T06:26:16.764Z,1880
2017-04-29T06:27:16.825Z,1892
2017-04-29T06:28:17.169Z,1904
2017-04-29T06:29:17.215Z,1912
2017-04-29T06:30:17.266Z,1924
2017-04-29T06:31:17.318Z,1936
2017-04-29T06:32:17.368Z,1956
2017-04-29T06:33:17.428Z,1968
2017-04-29T06:34:17.176Z,1984
2017-04-29T06:35:17.531Z,1996
2017-04-29T06:36:17.303Z,2008
2017-04-29T06:37:17.629Z,2020
2017-04-29T06:38:17.678Z,2036
2017-04-29T06:39:17.432Z,2048
2017-04-29T06:40:17.784Z,2060
2017-04-29T06:41:17.532Z,2072
2017-04-29T06:42:17.583Z,2076
2017-04-29T06:43:17.640Z,2084
2017-04-29T06:44:17.691Z,2092
2017-04-29T06:45:17.740Z,2100
2017-04-29T06:46:18.093Z,2108
2017-04-29T06:47:18.143Z,2112
2017-04-29T06:48:17.594Z,2120
2017-04-29T06:49:18.247Z,2140
2017-04-29T06:50:18.300Z,2156
2017-04-29T06:51:18.045Z,2180
2017-04-29T06:52:18.103Z,2192
2017-04-29T06:53:18.350Z,2212
2017-04-29T06:54:18.508Z,2220
2017-04-29T06:55:18.557Z,2240
2017-04-29T06:56:18.615Z,2264
2017-04-29T06:57:18.662Z,2264
2017-04-29T06:58:18.926Z,2276
2017-04-29T06:59:18.766Z,2304
2017-04-29T07:00:18.815Z,2316
2017-04-29T07:01:18.867Z,2324
2017-04-29T07:02:18.617Z,2336
2017-04-29T07:03:18.978Z,2336
2017-04-29T07:04:19.027Z,2344
2017-04-29T07:05:18.774Z,2368
2017-04-29T07:06:19.143Z,2404
2017-04-29T07:07:19.183Z,2432
2017-04-29T07:08:19.239Z,2468
2017-04-29T07:09:19.286Z,2488
2017-04-29T07:10:19.339Z,2492
2017-04-29T07:11:19.390Z,2504
2017-04-29T07:12:19.441Z,2520
2017-04-29T07:13:19.194Z,2556
2017-04-29T07:14:19.551Z,2600
2017-04-29T07:15:19.594Z,2644
2017-04-29T07:16:19.647Z,2684
2017-04-29T07:17:19.697Z,2720
2017-04-29T07:18:19.753Z,2768
2017-04-29T07:19:19.804Z,2808
2017-04-29T07:20:19.855Z,2848
2017-04-29T07:21:19.911Z,2880
2017-04-29T07:22:19.963Z,2900
2017-04-29T07:23:19.716Z,2936
2017-04-29T07:24:20.070Z,2968
2017-04-29T07:25:20.119Z,2968
2017-04-29T07:26:20.168Z,3012
2017-04-29T07:27:20.220Z,3048
2017-04-29T07:28:20.183Z,3064
2017-04-29T07:29:20.354Z,3096
2017-04-29T07:30:20.077Z,3124
2017-04-29T07:31:20.131Z,3140
2017-04-29T07:32:20.383Z,3172
2017-04-29T07:33:20.447Z,3204
2017-04-29T07:34:20.292Z,3224
2017-04-29T07:35:20.641Z,3248
2017-04-29T07:36:20.697Z,3272
2017-04-29T07:37:20.744Z,3304
2017-04-29T07:38:20.798Z,3324
2017-04-29T07:39:20.851Z,3360
2017-04-29T07:40:20.906Z,3372
2017-04-29T07:41:20.960Z,3400
2017-04-29T07:42:21.011Z,3424
2017-04-29T07:43:21.060Z,3440
2017-04-29T07:44:21.123Z,3464
2017-04-29T07:45:20.868Z,3492
2017-04-29T07:46:21.219Z,3508
2017-04-29T07:47:21.275Z,3524
2017-04-29T07:48:21.332Z,3548
2017-04-29T07:49:21.382Z,3560
2017-04-29T07:50:21.428Z,3584
2017-04-29T07:51:21.487Z,3608
2017-04-29T07:52:21.533Z,3628
2017-04-29T07:53:21.591Z,3644
2017-04-29T07:54:21.345Z,3664
2017-04-29T07:55:21.697Z,3684
2017-04-29T07:56:21.751Z,3712
2017-04-29T07:57:21.505Z,3732
2017-04-29T07:58:21.861Z,3752
2017-04-29T07:59:21.906Z,3776
2017-04-29T08:00:21.960Z,3800
2017-04-29T08:01:22.012Z,3812
2017-04-29T08:02:22.064Z,3828
2017-04-29T08:03:35.755Z,3848
2017-04-29T08:04:22.170Z,3864
2017-04-29T08:05:22.223Z,3884
2017-04-29T08:06:22.276Z,3904
2017-04-29T08:07:22.334Z,3924
2017-04-29T08:08:22.596Z,3936
2017-04-29T08:09:22.139Z,3952
2017-04-29T08:10:22.488Z,3964
2017-04-29T08:11:22.550Z,3984
2017-04-29T08:12:22.595Z,4004
2017-04-29T08:13:22.651Z,4028
2017-04-29T08:14:22.708Z,4048
2017-04-29T08:15:22.756Z,4064
2017-04-29T08:16:22.504Z,4076
2017-04-29T08:17:22.866Z,4096
2017-04-29T08:18:22.917Z,4104
2017-04-29T08:19:22.974Z,4124
2017-04-29T08:20:23.025Z,4136
2017-04-29T08:21:23.083Z,4156
2017-04-29T08:22:23.129Z,4168
2017-04-29T08:23:23.187Z,4176
2017-04-29T08:24:23.241Z,4192
2017-04-29T08:25:23.296Z,4200
2017-04-29T08:26:23.344Z,4216
2017-04-29T08:27:23.398Z,4228
2017-04-29T08:28:23.156Z,4240
2017-04-29T08:29:23.508Z,4256
2017-04-29T08:30:23.570Z,4276
2017-04-29T08:31:23.620Z,4284
2017-04-29T08:32:23.676Z,4296
2017-04-29T08:33:23.935Z,4312
2017-04-29T08:34:23.981Z,4324
2017-04-29T08:35:23.833Z,4340
2017-04-29T08:36:23.888Z,4360
2017-04-29T08:37:23.937Z,4380
2017-04-29T08:38:23.996Z,4380
2017-04-29T08:39:23.749Z,4392
2017-04-29T08:40:38.731Z,4408
2017-04-29T08:41:24.155Z,4420
2017-04-29T08:42:24.212Z,4432
2017-04-29T08:43:24.263Z,4444
2017-04-29T08:44:24.321Z,4456
2017-04-29T08:45:24.374Z,4476
2017-04-29T08:46:24.432Z,4480
2017-04-29T08:47:24.484Z,4500
2017-04-29T08:48:24.539Z,4504
2017-04-29T08:49:24.598Z,4524
2017-04-29T08:50:24.644Z,4540
2017-04-29T08:51:24.697Z,4556
2017-04-29T08:52:24.760Z,4568
2017-04-29T08:53:24.812Z,4584
2017-04-29T08:54:24.875Z,4604
2017-04-29T08:55:24.922Z,4644
2017-04-29T08:56:24.669Z,4788
2017-04-29T08:57:25.022Z,4744
2017-04-29T08:58:25.082Z,4664
2017-04-29T08:59:25.135Z,4684
2017-04-29T09:00:24.888Z,6256
2017-04-29T09:01:25.246Z,8924
2017-04-29T09:02:25.300Z,6576
2017-04-29T09:03:25.354Z,4756
2017-04-29T09:04:25.614Z,4704
2017-04-29T09:05:38.842Z,4708
2017-04-29T09:06:25.520Z,4712
2017-04-29T09:07:25.571Z,4728
2017-04-29T09:08:25.329Z,4744
2017-04-29T09:09:25.686Z,4760
2017-04-29T09:10:25.744Z,4760
2017-04-29T09:11:25.790Z,4772
2017-04-29T09:12:25.842Z,4804
2017-04-29T09:13:39.287Z,4820
2017-04-29T09:14:26.165Z,4812
2017-04-29T09:15:26.017Z,4816
2017-04-29T09:16:26.066Z,4828
2017-04-29T09:17:25.818Z,4832
2017-04-29T09:18:26.177Z,4840
2017-04-29T09:19:26.450Z,4848
2017-04-29T09:20:26.289Z,4852
2017-04-29T09:21:26.340Z,4864
2017-04-29T09:22:26.400Z,4872
2017-04-29T09:23:26.458Z,4880
2017-04-29T09:24:26.511Z,4892
2017-04-29T09:25:26.564Z,4896
2017-04-29T09:26:26.619Z,4904
2017-04-29T09:27:26.671Z,4916
2017-04-29T09:28:26.772Z,4924
2017-04-29T09:29:26.788Z,4936
2017-04-29T09:30:26.836Z,4952
2017-04-29T09:31:26.895Z,4952
2017-04-29T09:32:26.961Z,4964
2017-04-29T09:33:27.005Z,4980
2017-04-29T09:34:27.072Z,4984
2017-04-29T09:35:27.117Z,4996
2017-04-29T09:36:27.173Z,5012
2017-04-29T09:37:27.227Z,5020
2017-04-29T09:38:27.294Z,5024
2017-04-29T09:39:27.342Z,5032
2017-04-29T09:40:27.397Z,5044
2017-04-29T09:41:27.453Z,5060
2017-04-29T09:42:27.208Z,5068
2017-04-29T09:43:27.565Z,5076
2017-04-29T09:44:27.621Z,5088
2017-04-29T09:45:27.877Z,5100
2017-04-29T09:46:27.729Z,5112
2017-04-29T09:47:27.789Z,5124
2017-04-29T09:48:27.850Z,5128
2017-04-29T09:49:27.909Z,5140
2017-04-29T09:50:28.157Z,5152
2017-04-29T09:51:28.011Z,5164
2017-04-29T09:52:28.071Z,5172
2017-04-29T09:53:28.122Z,5180
2017-04-29T09:54:28.183Z,5192
2017-04-29T09:55:28.240Z,5200
2017-04-29T09:56:27.990Z,5216
2017-04-29T09:57:28.350Z,5220
2017-04-29T09:58:28.402Z,5224
2017-04-29T09:59:28.463Z,5236
2017-04-29T10:00:28.520Z,5248
2017-04-29T10:01:28.567Z,5256
2017-04-29T10:02:28.629Z,5252
2017-04-29T10:03:28.685Z,5268
2017-04-29T10:04:28.746Z,5284
2017-04-29T10:05:28.798Z,5288
2017-04-29T10:06:28.851Z,5300
2017-04-29T10:07:28.611Z,5308
2017-04-29T10:08:28.965Z,5324
2017-04-29T10:09:29.025Z,5332
2017-04-29T10:10:29.081Z,5336
2017-04-29T10:11:29.138Z,5344
2017-04-29T10:12:29.193Z,5356
2017-04-29T10:13:29.246Z,5368
2017-04-29T10:14:29.304Z,5384
2017-04-29T10:15:29.368Z,5392
2017-04-29T10:16:29.418Z,5408
2017-04-29T10:17:29.476Z,5408
2017-04-29T10:18:29.538Z,5416
2017-04-29T10:19:29.588Z,5424
2017-04-29T10:20:29.637Z,5432
2017-04-29T10:21:29.700Z,5440
2017-04-29T10:22:29.761Z,5440
2017-04-29T10:23:29.815Z,5444
2017-04-29T10:24:29.868Z,5432
2017-04-29T10:25:29.924Z,5440
2017-04-29T10:26:29.985Z,5444
2017-04-29T10:27:30.038Z,5440
2017-04-29T10:28:30.103Z,5432
2017-04-29T10:29:30.154Z,5436
2017-04-29T10:30:29.912Z,5440
2017-04-29T10:31:30.268Z,5428
2017-04-29T10:32:30.324Z,5412
2017-04-29T10:33:30.387Z,5400
2017-04-29T10:34:30.444Z,5392
2017-04-29T10:35:30.490Z,5364
2017-04-29T10:36:30.554Z,5324
2017-04-29T10:37:30.604Z,5284
2017-04-29T10:38:30.661Z,5224
2017-04-29T10:39:30.420Z,5160
2017-04-29T10:40:30.775Z,5080
2017-04-29T10:41:30.831Z,5004
2017-04-29T10:42:30.914Z,4928
2017-04-29T10:43:30.946Z,4860
2017-04-29T10:44:31.043Z,4780
2017-04-29T10:45:31.061Z,4704
2017-04-29T10:46:31.119Z,4644
2017-04-29T10:47:31.175Z,4580
2017-04-29T10:48:31.231Z,4564
2017-04-29T10:49:31.289Z,4556
2017-04-29T10:50:31.351Z,4552
2017-04-29T10:51:31.405Z,4552
2017-04-29T10:52:31.463Z,4548
2017-04-29T10:53:31.519Z,4544
2017-04-29T10:54:31.573Z,4540
2017-04-29T10:55:31.630Z,4532
2017-04-29T10:56:31.691Z,4516
2017-04-29T10:57:31.744Z,4508
2017-04-29T10:58:31.801Z,4500
2017-04-29T10:59:31.857Z,4504
2017-04-29T11:00:31.911Z,4488
2017-04-29T11:01:31.968Z,4484
2017-04-29T11:02:31.727Z,4468
2017-04-29T11:03:31.787Z,4464
2017-04-29T11:04:32.143Z,4456
2017-04-29T11:05:32.199Z,4448
2017-04-29T11:06:32.253Z,4440
2017-04-29T11:07:32.313Z,4436
2017-04-29T11:08:32.375Z,4436
2017-04-29T11:09:32.423Z,4432
2017-04-29T11:10:32.483Z,4424
2017-04-29T11:11:32.538Z,4420
2017-04-29T11:12:32.600Z,4420
2017-04-29T11:13:32.651Z,4416
2017-04-29T11:14:32.714Z,4432
2017-04-29T11:15:32.766Z,4440
2017-04-29T11:16:32.827Z,4440
2017-04-29T11:17:32.881Z,4416
2017-04-29T11:18:32.936Z,4432
2017-04-29T11:19:32.994Z,4452
2017-04-29T11:20:33.051Z,4500
2017-04-29T11:21:33.105Z,4580
2017-04-29T11:22:33.167Z,4836
2017-04-29T11:23:33.223Z,11032
2017-04-29T11:24:33.280Z,32064
2017-04-29T11:25:33.332Z,31744
2017-04-29T11:26:33.386Z,42848
2017-04-29T11:27:33.443Z,26080
2017-04-29T11:28:33.515Z,11000
2017-04-29T11:29:33.564Z,14540
2017-04-29T11:30:33.620Z,5884
2017-04-29T11:31:33.677Z,4556
2017-04-29T11:32:33.730Z,4356
2017-04-29T11:33:33.783Z,4276
2017-04-29T11:34:33.842Z,4224
2017-04-29T11:35:33.898Z,4180
2017-04-29T11:36:33.958Z,4152
2017-04-29T11:37:34.013Z,4128
2017-04-29T11:38:34.066Z,4100
2017-04-29T11:39:34.126Z,4080
2017-04-29T11:40:34.177Z,4060
2017-04-29T11:41:34.238Z,4036
2017-04-29T11:42:33.994Z,4024
2017-04-29T11:43:34.052Z,4004
2017-04-29T11:44:34.412Z,3976
2017-04-29T11:45:34.166Z,3916
2017-04-29T11:46:34.523Z,3864
2017-04-29T11:47:34.275Z,3820
2017-04-29T11:48:34.636Z,3792
2017-04-29T11:49:34.691Z,3764
2017-04-29T11:50:34.486Z,3740
2017-04-29T11:51:34.806Z,3712
2017-04-29T11:52:34.869Z,3688
2017-04-29T11:53:34.918Z,3664
2017-04-29T11:54:34.973Z,3636
2017-04-29T11:55:35.037Z,3616
2017-04-29T11:56:35.087Z,3588
2017-04-29T11:57:35.145Z,3568
2017-04-29T11:58:35.205Z,3548
2017-04-29T11:59:34.957Z,3536
2017-04-29T12:00:35.321Z,3516
2017-04-29T12:01:35.374Z,3496
2017-04-29T12:02:35.428Z,3472
2017-04-29T12:03:35.490Z,3448
2017-04-29T12:04:35.541Z,3432
2017-04-29T12:05:35.299Z,3416
2017-04-29T12:06:35.660Z,3396
2017-04-29T12:07:35.716Z,3384
2017-04-29T12:08:35.775Z,3364
2017-04-29T12:09:35.524Z,3348
2017-04-29T12:10:35.888Z,3332
2017-04-29T12:11:35.947Z,3320
2017-04-29T12:12:35.996Z,3304
2017-04-29T12:13:36.058Z,3292
2017-04-29T12:14:36.113Z,3284
2017-04-29T12:15:36.180Z,3272
2017-04-29T12:16:36.231Z,3256
2017-04-29T12:17:36.283Z,3236
2017-04-29T12:18:36.340Z,3220
2017-04-29T12:19:36.395Z,3212
2017-04-29T12:20:36.153Z,3200
2017-04-29T12:21:36.509Z,3184
2017-04-29T12:22:36.566Z,3172
2017-04-29T12:23:36.629Z,3156
2017-04-29T12:24:36.683Z,3148
2017-04-29T12:25:36.434Z,3132
2017-04-29T12:26:36.803Z,3148
2017-04-29T12:27:36.852Z,3104
2017-04-29T12:28:36.606Z,3124
2017-04-29T12:29:36.965Z,3084
2017-04-29T12:30:37.022Z,3100
2017-04-29T12:31:37.083Z,3064
2017-04-29T12:32:37.133Z,3048
2017-04-29T12:33:37.194Z,3032
2017-04-29T12:34:37.252Z,3020
2017-04-29T12:35:37.005Z,3008
2017-04-29T12:36:37.361Z,2996
2017-04-29T12:37:37.419Z,2984
2017-04-29T12:38:37.479Z,2980
2017-04-29T12:39:37.533Z,2960
2017-04-29T12:40:37.296Z,2952
2017-04-29T12:41:37.655Z,2940
2017-04-29T12:42:37.699Z,2928
2017-04-29T12:43:37.762Z,2916
2017-04-29T12:44:37.518Z,2908
2017-04-29T12:45:37.873Z,2900
2017-04-29T12:46:37.932Z,2892
2017-04-29T12:47:37.990Z,2872
2017-04-29T12:48:38.047Z,2856
2017-04-29T12:49:38.103Z,2848
2017-04-29T12:50:38.178Z,2836
2017-04-29T12:51:38.231Z,2828
2017-04-29T12:52:38.282Z,2816
2017-04-29T12:53:38.334Z,2808
2017-04-29T12:54:38.387Z,2800
2017-04-29T12:55:38.443Z,2788
2017-04-29T12:56:38.508Z,2780
2017-04-29T12:57:38.558Z,2772
2017-04-29T12:58:38.317Z,2764
2017-04-29T12:59:38.372Z,2752
2017-04-29T13:00:38.727Z,2800
2017-04-29T13:01:38.780Z,2728
2017-04-29T13:02:38.843Z,2712
2017-04-29T13:03:38.901Z,2704
2017-04-29T13:04:38.654Z,2692
2017-04-29T13:05:39.009Z,2684
2017-04-29T13:06:39.064Z,2676
2017-04-29T13:07:39.127Z,2668
2017-04-29T13:08:39.183Z,2656
2017-04-29T13:09:39.238Z,2648
2017-04-29T13:10:39.295Z,2636
2017-04-29T13:11:39.352Z,2628
2017-04-29T13:12:39.408Z,2616
2017-04-29T13:13:39.463Z,2608
2017-04-29T13:14:39.521Z,2608
2017-04-29T13:15:39.579Z,2596
2017-04-29T13:16:39.638Z,2588
2017-04-29T13:17:39.694Z,2572
2017-04-29T13:18:39.746Z,2568
2017-04-29T13:19:39.803Z,2560
2017-04-29T13:20:39.859Z,2548
2017-04-29T13:21:39.613Z,2540
2017-04-29T13:22:39.968Z,2528
2017-04-29T13:23:40.034Z,2516
2017-04-29T13:24:40.094Z,2512
2017-04-29T13:25:40.144Z,2504
2017-04-29T13:26:40.195Z,2488
2017-04-29T13:27:40.255Z,2480
2017-04-29T13:28:40.309Z,2468
2017-04-29T13:29:40.369Z,2468
2017-04-29T13:30:40.422Z,2456
2017-04-29T13:31:40.511Z,2444
2017-04-29T13:32:40.236Z,2428
2017-04-29T13:33:40.289Z,2420
2017-04-29T13:34:40.647Z,2412
2017-04-29T13:35:40.703Z,2400
2017-04-29T13:36:40.761Z,2396
2017-04-29T13:37:40.819Z,2384
2017-04-29T13:38:40.569Z,2376
2017-04-29T13:39:40.930Z,2368
2017-04-29T13:40:40.985Z,2360
2017-04-29T13:41:41.041Z,2352
2017-04-29T13:42:41.102Z,2344
2017-04-29T13:43:41.194Z,2332
2017-04-29T13:44:41.212Z,2328
2017-04-29T13:45:41.272Z,2324